Time;durP1;ratioP1;P1;durP2;ratioP2;P2;SDS_P1;SDS_P2;PMS_P1;PMS_P2;Temp;Humidity;BMP_temperature;BMP_pressure;BME280_temperature;BME280_humidity;BME280_pressure;Samples;Min_cycle;Max_cycle;Signal;HPM_P1;HPM_P2
2023/01/19 00:00:57;;;;;;;;;19.00;10.75;;;;;6.48;61.17;100194.16;5087016;27;47114;-63
2023/01/19 00:03:23;;;;;;;;;9.50;9.50;;;;;6.38;61.72;100195.59;5094683;27;45252;-59
2023/01/19 00:05:48;;;;;;;;;14.75;11.25;;;;;6.20;61.91;100201.19;5088645;27;45266;-59
2023/01/19 00:08:14;;;;;;;;;13.50;12.25;;;;;6.06;62.05;100205.09;5101480;27;44902;-60
2023/01/19 00:10:42;;;;;;;;;13.75;10.25;;;;;6.01;62.59;100207.56;5090839;27;45532;-59
2023/01/19 00:13:07;;;;;;;;;15.25;15.25;;;;;5.95;63.07;100211.72;5108395;27;45238;-59
2023/01/19 00:15:33;;;;;;;;;17.00;13.25;;;;;5.92;62.87;100217.81;5115002;27;45312;-58
2023/01/19 00:17:58;;;;;;;;;16.50;12.25;;;;;5.90;63.13;100214.19;5117131;27;46340;-58
2023/01/19 00:20:23;;;;;;;;;13.75;11.25;;;;;5.89;63.15;100223.03;5114013;27;45080;-59
2023/01/19 00:22:49;;;;;;;;;14.50;13.50;;;;;5.86;63.49;100214.94;5115526;27;45291;-61
2023/01/19 00:25:15;;;;;;;;;16.25;15.00;;;;;5.89;63.49;100223.03;5110238;27;46139;-59
2023/01/19 00:27:40;;;;;;;;;13.50;13.00;;;;;5.96;63.44;100214.47;5112068;27;45177;-60
2023/01/19 00:30:07;;;;;;;;;14.50;12.75;;;;;6.03;63.46;100221.78;5094624;27;55903;-60
2023/01/19 00:32:32;;;;;;;;;9.50;9.50;;;;;6.01;63.46;100225.25;5112683;27;45249;-58
2023/01/19 00:34:57;;;;;;;;;14.50;10.50;;;;;6.03;62.92;100220.88;5113647;27;45739;-60
2023/01/19 00:37:23;;;;;;;;;14.75;12.75;;;;;5.99;62.32;100221.59;5115726;27;44926;-59
2023/01/19 00:39:48;;;;;;;;;8.00;6.75;;;;;5.82;62.80;100205.06;5094459;27;45376;-60
2023/01/19 00:44:57;;;;;;;;;18.50;14.00;;;;;5.88;62.76;100214.16;5093852;27;45387;-58
2023/01/19 00:47:23;;;;;;;;;19.50;15.00;;;;;5.81;63.16;100224.50;5091613;27;45394;-58
2023/01/19 00:49:48;;;;;;;;;11.50;9.00;;;;;5.74;63.80;100228.63;5100078;27;45359;-58
2023/01/19 00:52:13;;;;;;;;;14.50;13.25;;;;;5.66;63.54;100230.09;5098924;27;45402;-58
2023/01/19 00:54:39;;;;;;;;;19.00;13.25;;;;;5.55;64.09;100216.44;5095979;27;55407;-62
2023/01/19 00:57:04;;;;;;;;;12.25;9.75;;;;;5.59;63.61;100230.72;5096113;27;45363;-61
2023/01/19 00:59:29;;;;;;;;;8.50;8.50;;;;;5.57;63.64;100229.75;5095890;27;45383;-60
2023/01/19 01:01:55;;;;;;;;;14.25;11.00;;;;;5.47;63.82;100204.66;5096606;27;46759;-60
2023/01/19 01:04:20;;;;;;;;;15.75;12.00;;;;;5.63;64.14;100238.84;5088878;27;56715;-59
2023/01/19 01:06:45;;;;;;;;;18.25;11.75;;;;;5.39;63.63;100195.50;5092479;27;45245;-58
2023/01/19 01:09:11;;;;;;;;;11.75;10.00;;;;;5.54;63.47;100250.00;5094518;27;54397;-60
2023/01/19 01:11:41;;;;;;;;;14.00;12.50;;;;;5.43;64.34;100242.47;5095681;27;45710;-59
2023/01/19 01:14:07;;;;;;;;;18.25;13.75;;;;;5.41;64.21;100260.97;5096315;27;45538;-58
2023/01/19 01:16:32;;;;;;;;;16.00;13.00;;;;;5.38;64.44;100254.63;5092153;27;45370;-60
2023/01/19 01:18:58;;;;;;;;;12.00;10.25;;;;;5.35;64.40;100261.63;5094505;27;45519;-59
2023/01/19 01:21:23;;;;;;;;;12.25;10.25;;;;;5.37;64.86;100268.72;5090222;27;45477;-58
2023/01/19 01:23:49;;;;;;;;;11.75;11.75;;;;;5.32;64.81;100272.09;5089082;27;46275;-59
2023/01/19 01:26:14;;;;;;;;;25.25;14.25;;;;;5.25;64.98;100277.09;5094897;27;45627;-58
2023/01/19 01:28:40;;;;;;;;;14.25;9.75;;;;;5.12;64.57;100275.69;5095257;27;48836;-59
2023/01/19 01:31:05;;;;;;;;;11.75;11.75;;;;;5.07;65.01;100275.50;5091643;27;45475;-59
2023/01/19 01:33:30;;;;;;;;;12.00;12.00;;;;;5.04;65.17;100271.84;5094843;27;46270;-58
2023/01/19 01:35:56;;;;;;;;;11.75;8.75;;;;;5.16;64.86;100281.19;5092499;27;59720;-60
2023/01/19 01:38:21;;;;;;;;;7.25;7.25;;;;;5.23;65.09;100279.69;5094495;27;45426;-59
2023/01/19 01:40:46;;;;;;;;;10.50;10.00;;;;;5.23;64.62;100287.63;5090172;27;46875;-57
2023/01/19 01:43:14;;;;;;;;;14.75;12.00;;;;;5.15;64.42;100291.72;5094978;27;45742;-58
2023/01/19 01:45:40;;;;;;;;;15.50;12.75;;;;;5.01;64.33;100277.00;5095773;27;45457;-59
2023/01/19 01:48:25;;;;;;;;;14.25;9.50;;;;;5.13;64.88;100302.25;5094371;27;45466;-59
2023/01/19 01:53:44;;;;;;;;;12.50;12.50;;;;;5.17;64.32;100317.41;5093936;27;45816;-59
2023/01/19 01:56:15;;;;;;;;;10.00;9.75;;;;;5.14;63.93;100313.72;5095491;27;45463;-57
2023/01/19 01:58:41;;;;;;;;;13.00;9.50;;;;;5.17;64.25;100313.84;5092548;27;45394;-59
2023/01/19 02:03:53;;;;;;;;;9.25;9.25;;;;;5.13;64.07;100322.50;5094042;27;45541;-59
2023/01/19 02:06:20;;;;;;;;;13.25;10.75;;;;;5.17;63.69;100308.56;5092733;27;45479;-58
2023/01/19 02:14:21;;;;;;;;;10.50;8.00;;;;;5.06;64.02;100325.75;5094745;27;45882;-59
2023/01/19 02:16:47;;;;;;;;;15.75;14.00;;;;;5.09;64.13;100317.94;5089666;27;46863;-59
2023/01/19 02:19:19;;;;;;;;;15.00;13.25;;;;;5.09;64.59;100325.88;5094670;27;45295;-58
2023/01/19 02:22:00;;;;;;;;;15.00;14.00;;;;;5.08;64.58;100324.06;5091770;27;45326;-57
2023/01/19 02:24:27;;;;;;;;;15.00;8.00;;;;;5.09;64.52;100320.56;5095975;27;46898;-58
2023/01/19 02:26:52;;;;;;;;;17.50;12.00;;;;;5.06;64.43;100313.41;5095717;27;45351;-59
2023/01/19 02:29:21;;;;;;;;;23.00;15.25;;;;;5.09;64.99;100317.94;5095893;27;45719;-58
2023/01/19 02:31:47;;;;;;;;;16.75;13.25;;;;;4.82;64.78;100278.88;5095213;27;45404;-59
2023/01/19 02:34:18;;;;;;;;;14.75;12.50;;;;;5.06;64.21;100321.34;5094173;27;46475;-58
2023/01/19 02:36:57;;;;;;;;;13.50;12.75;;;;;4.99;64.98;100324.59;5094903;27;45473;-59
2023/01/19 02:39:29;;;;;;;;;19.50;13.25;;;;;5.07;64.22;100324.91;5091530;27;45377;-59
2023/01/19 02:42:01;;;;;;;;;15.50;10.50;;;;;5.06;64.39;100320.44;5087874;27;45448;-59
2023/01/19 02:44:29;;;;;;;;;13.75;12.50;;;;;4.98;64.75;100323.69;5091186;27;46179;-59
2023/01/19 02:46:54;;;;;;;;;17.50;16.75;;;;;4.88;64.97;100310.00;5088006;27;45536;-59
2023/01/19 02:49:20;;;;;;;;;15.75;13.75;;;;;4.93;64.57;100319.03;5092260;27;47130;-60
2023/01/19 02:51:45;;;;;;;;;19.50;13.50;;;;;4.67;64.83;100271.22;5076092;27;45614;-58
2023/01/19 02:54:16;;;;;;;;;21.50;13.75;;;;;5.07;64.88;100309.91;5093648;27;46152;-59
2023/01/19 02:56:47;;;;;;;;;17.50;13.50;;;;;5.16;64.00;100310.31;5094847;27;45642;-58
2023/01/19 02:59:27;;;;;;;;;17.25;14.75;;;;;5.19;64.81;100311.28;5093198;27;45417;-60
2023/01/19 03:02:15;;;;;;;;;17.50;13.75;;;;;5.26;64.34;100314.25;5091409;27;45558;-58
2023/01/19 03:05:12;;;;;;;;;17.75;17.75;;;;;5.27;64.36;100310.72;5094709;27;46512;-59
2023/01/19 03:07:56;;;;;;;;;18.75;17.25;;;;;5.25;63.42;100316.81;5084547;27;45618;-58
2023/01/19 03:10:34;;;;;;;;;18.50;17.25;;;;;5.19;63.79;100316.56;5072193;28;45614;-59
2023/01/19 03:13:26;;;;;;;;;17.50;13.75;;;;;5.20;63.90;100311.34;5092152;27;45991;-60
2023/01/19 03:16:12;;;;;;;;;17.25;13.00;;;;;5.20;64.06;100313.06;5071482;27;46201;-59
2023/01/19 03:18:41;;;;;;;;;13.75;12.50;;;;;5.00;64.26;100278.75;5090440;27;45350;-59
2023/01/19 03:21:10;;;;;;;;;17.00;14.25;;;;;5.16;64.27;100318.25;5093004;27;45471;-58
2023/01/19 03:23:39;;;;;;;;;13.50;13.50;;;;;4.97;64.09;100279.50;5094501;27;45471;-59
2023/01/19 03:26:09;;;;;;;;;19.00;16.25;;;;;5.06;64.45;100296.63;5092814;27;45570;-58
2023/01/19 03:28:39;;;;;;;;;12.25;12.25;;;;;5.12;63.73;100304.81;5093582;27;45705;-59
2023/01/19 03:31:12;;;;;;;;;17.00;14.25;;;;;5.08;64.00;100300.22;5093439;27;45583;-59
2023/01/19 03:33:42;;;;;;;;;16.75;13.75;;;;;5.07;64.53;100306.38;5093746;27;45594;-58
2023/01/19 03:36:21;;;;;;;;;22.25;13.50;;;;;5.10;64.17;100312.69;5094002;27;46393;-58
2023/01/19 03:38:48;;;;;;;;;24.25;16.00;;;;;4.99;63.98;100306.06;5091659;27;45400;-58
2023/01/19 03:41:17;;;;;;;;;18.50;17.50;;;;;4.98;64.07;100309.53;5074596;27;45700;-59
2023/01/19 03:43:45;;;;;;;;;15.50;13.75;;;;;5.05;64.12;100314.25;5094085;27;45580;-60
2023/01/19 03:46:11;;;;;;;;;21.50;14.75;;;;;5.05;64.38;100318.63;5087244;27;46188;-59
2023/01/19 03:48:37;;;;;;;;;21.50;16.75;;;;;5.06;64.22;100324.00;5086091;27;45928;-58
2023/01/19 03:51:06;;;;;;;;;18.50;16.25;;;;;4.79;64.18;100274.34;5093544;27;45648;-58
2023/01/19 03:53:32;;;;;;;;;17.75;13.25;;;;;4.85;64.25;100292.25;5087548;27;45383;-62
2023/01/19 03:55:57;;;;;;;;;17.25;15.25;;;;;5.06;64.33;100325.75;5093166;27;46080;-58
2023/01/19 03:58:22;;;;;;;;;19.25;17.00;;;;;5.01;64.39;100319.34;5092017;27;45617;-59
2023/01/19 04:00:48;;;;;;;;;14.50;14.25;;;;;4.99;64.76;100322.81;5094173;27;45475;-58
2023/01/19 04:03:15;;;;;;;;;15.00;15.00;;;;;4.90;64.95;100303.00;5093566;27;49170;-59
2023/01/19 04:05:41;;;;;;;;;18.00;14.00;;;;;5.05;65.12;100324.84;5092310;27;46292;-59
2023/01/19 04:08:06;;;;;;;;;19.25;14.00;;;;;4.97;64.09;100311.28;5092568;27;45682;-58
2023/01/19 04:10:31;;;;;;;;;16.50;13.00;;;;;4.92;64.31;100307.53;5094839;27;45523;-60
2023/01/19 04:12:58;;;;;;;;;15.75;13.25;;;;;4.97;64.74;100329.81;5095202;27;45407;-59
2023/01/19 04:15:24;;;;;;;;;21.50;16.25;;;;;4.84;64.90;100303.66;5078514;27;47061;-58
2023/01/19 04:17:50;;;;;;;;;16.50;14.00;;;;;4.99;65.13;100333.41;5096413;27;45569;-58
2023/01/19 04:20:15;;;;;;;;;18.00;17.50;;;;;4.98;64.46;100333.34;5095314;27;45275;-61
2023/01/19 04:22:41;;;;;;;;;23.00;14.00;;;;;5.03;65.23;100330.91;5095409;27;45892;-58
2023/01/19 04:25:07;;;;;;;;;17.00;17.00;;;;;5.07;64.43;100330.22;5097806;27;45364;-58
2023/01/19 04:27:33;;;;;;;;;17.50;16.50;;;;;5.06;64.17;100325.75;5096545;27;45461;-59
2023/01/19 04:29:59;;;;;;;;;12.00;7.00;;;;;5.06;64.36;100321.34;5096672;27;45435;-59
2023/01/19 04:32:24;;;;;;;;;17.75;13.75;;;;;4.87;64.53;100298.50;5091279;27;45477;-60
2023/01/19 04:34:50;;;;;;;;;19.25;17.00;;;;;5.06;64.47;100321.34;5089076;27;46514;-58
2023/01/19 04:37:16;;;;;;;;;19.25;15.25;;;;;5.06;63.94;100324.00;5097756;27;45273;-60
2023/01/19 04:39:41;;;;;;;;;22.00;15.25;;;;;5.06;64.47;100316.03;5075176;27;45392;-61
2023/01/19 04:42:07;;;;;;;;;20.75;14.75;;;;;5.03;64.11;100321.22;5098013;27;45449;-59
2023/01/19 04:44:32;;;;;;;;;12.50;11.00;;;;;4.97;63.79;100311.28;5076845;27;47525;-58
2023/01/19 04:46:57;;;;;;;;;18.50;14.00;;;;;5.06;63.70;100320.44;5096567;27;48392;-57
2023/01/19 04:49:23;;;;;;;;;16.75;15.00;;;;;4.80;64.02;100276.19;5096286;27;45480;-58
2023/01/19 04:51:48;;;;;;;;;13.50;11.75;;;;;4.94;64.71;100295.25;5096653;27;45224;-58
2023/01/19 04:54:13;;;;;;;;;21.50;18.00;;;;;5.07;64.54;100322.25;5096224;27;46275;-58
2023/01/19 04:56:42;;;;;;;;;18.00;17.75;;;;;5.09;64.80;100320.56;5095705;27;45622;-59
2023/01/19 04:59:07;;;;;;;;;18.00;18.00;;;;;5.06;64.86;100316.03;5096930;27;45495;-59
2023/01/19 05:01:32;;;;;;;;;8.75;8.25;;;;;5.09;63.98;100326.75;5099201;27;45492;-59
2023/01/19 05:03:58;;;;;;;;;19.00;16.75;;;;;4.98;65.03;100304.22;5099564;27;46217;-58
2023/01/19 05:06:24;;;;;;;;;14.75;13.00;;;;;5.08;64.54;100326.69;5102192;27;45508;-58
2023/01/19 05:08:49;;;;;;;;;13.00;13.00;;;;;5.04;64.51;100322.13;5099855;27;45403;-58
2023/01/19 05:11:15;;;;;;;;;19.00;12.50;;;;;5.00;65.01;100326.41;5097349;27;45264;-59
2023/01/19 05:13:40;;;;;;;;;19.25;17.25;;;;;4.98;64.77;100323.69;5068981;27;45494;-58
2023/01/19 05:16:07;;;;;;;;;25.00;20.75;;;;;4.95;64.91;100328.84;5051585;28;45477;-59
2023/01/19 05:18:35;;;;;;;;;25.00;19.50;;;;;4.81;65.02;100306.19;5070430;27;45473;-57
2023/01/19 05:21:03;;;;;;;;;20.75;14.25;;;;;4.91;65.20;100336.59;5059050;27;45450;-58
2023/01/19 05:23:30;;;;;;;;;18.00;13.25;;;;;4.84;64.82;100338.06;5075464;27;45445;-58
2023/01/19 05:25:56;;;;;;;;;17.75;14.25;;;;;4.85;65.01;100326.66;5068917;27;45279;-58
2023/01/19 05:28:21;;;;;;;;;14.50;12.00;;;;;4.86;65.21;100324.91;5070622;27;45701;-60
2023/01/19 05:30:49;;;;;;;;;16.75;15.00;;;;;4.64;64.79;100280.72;5067489;27;45454;-58
2023/01/19 05:33:14;;;;;;;;;16.50;14.25;;;;;4.89;65.23;100327.69;5070666;27;45503;-60
2023/01/19 05:35:39;;;;;;;;;18.75;15.25;;;;;4.79;65.24;100316.69;5074787;27;45201;-59
2023/01/19 05:38:05;;;;;;;;;17.00;15.25;;;;;4.85;65.19;100326.66;5072801;27;45723;-58
2023/01/19 05:40:30;;;;;;;;;16.00;16.00;;;;;4.78;65.05;100314.91;5069124;27;45422;-58
2023/01/19 05:42:59;;;;;;;;;21.50;18.50;;;;;4.86;65.14;100339.03;5068272;27;45916;-58
2023/01/19 05:45:27;;;;;;;;;22.50;18.00;;;;;4.86;65.16;100332.84;5069167;27;45478;-58
2023/01/19 05:47:53;;;;;;;;;21.50;13.50;;;;;4.82;65.29;100334.47;5037548;27;45491;-58
2023/01/19 05:50:19;;;;;;;;;16.00;15.00;;;;;4.61;65.38;100295.66;5060534;28;45350;-60
2023/01/19 05:52:44;;;;;;;;;20.50;13.50;;;;;4.73;65.35;100328.78;5068326;27;45421;-59
2023/01/19 05:55:10;;;;;;;;;18.00;16.25;;;;;4.74;65.33;100339.41;5068893;27;45625;-58
2023/01/19 05:57:35;;;;;;;;;17.00;13.00;;;;;4.72;65.67;100342.81;5062600;27;46577;-59
2023/01/19 06:00:02;;;;;;;;;13.75;13.00;;;;;4.66;65.69;100346.13;5061026;27;45406;-59
2023/01/19 06:02:28;;;;;;;;;15.75;13.50;;;;;4.63;66.12;100334.50;5057323;28;45676;-58
2023/01/19 06:04:54;;;;;;;;;21.25;16.00;;;;;4.55;66.23;100320.94;5070573;27;45541;-59
2023/01/19 06:07:20;;;;;;;;;21.25;12.75;;;;;4.49;66.08;100304.78;5064940;27;45910;-59
2023/01/19 06:09:45;;;;;;;;;15.25;13.00;;;;;4.58;66.07;100324.63;5071045;27;45479;-58
2023/01/19 06:12:11;;;;;;;;;12.25;10.50;;;;;4.74;65.93;100344.72;5082429;27;45518;-60
2023/01/19 06:14:37;;;;;;;;;15.25;12.75;;;;;4.75;66.12;100335.94;5099328;27;45281;-59
2023/01/19 06:17:04;;;;;;;;;17.25;12.25;;;;;4.75;66.05;100335.94;5097728;27;46871;-59
2023/01/19 06:19:30;;;;;;;;;22.25;13.00;;;;;4.73;65.90;100331.41;5097542;27;45350;-60
2023/01/19 06:21:55;;;;;;;;;16.50;12.00;;;;;4.79;66.46;100332.56;5099474;27;45947;-60
2023/01/19 06:24:21;;;;;;;;;18.50;16.25;;;;;4.82;66.38;100344.13;5101076;27;45373;-60
2023/01/19 06:26:47;;;;;;;;;10.25;8.25;;;;;4.85;65.49;100341.63;5094232;27;46700;-60
2023/01/19 06:29:13;;;;;;;;;12.25;12.00;;;;;4.82;65.25;100346.78;5087343;27;45471;-58
2023/01/19 06:31:39;;;;;;;;;17.50;14.50;;;;;4.80;66.38;100349.34;5097810;27;45507;-59
2023/01/19 06:34:04;;;;;;;;;15.00;12.50;;;;;4.83;66.18;100349.50;5097968;27;45550;-59
2023/01/19 06:36:30;;;;;;;;;19.00;11.50;;;;;4.87;66.54;100356.75;5092625;27;45697;-60
2023/01/19 06:38:55;;;;;;;;;11.25;9.25;;;;;4.88;66.14;100358.53;5096680;27;45612;-62
2023/01/19 06:41:20;;;;;;;;;12.25;11.75;;;;;4.90;65.32;100366.53;5107848;27;50768;-59
2023/01/19 06:43:45;;;;;;;;;13.50;11.50;;;;;4.88;66.22;100361.16;5078226;27;45330;-60
2023/01/19 06:46:12;;;;;;;;;13.00;9.25;;;;;4.83;66.05;100353.88;5066582;27;45695;-63
2023/01/19 06:48:37;;;;;;;;;13.75;10.00;;;;;4.77;65.80;100339.56;5090231;27;45370;-60
2023/01/19 06:51:04;;;;;;;;;14.25;10.00;;;;;4.86;66.31;100361.97;5096488;27;47495;-60
2023/01/19 06:53:30;;;;;;;;;16.00;11.50;;;;;4.86;65.93;100365.50;5098069;27;45401;-60
2023/01/19 06:56:00;;;;;;;;;13.50;12.50;;;;;4.52;66.13;100304.94;5100006;27;45366;-60
2023/01/19 06:58:27;;;;;;;;;16.00;11.75;;;;;4.84;65.96;100355.72;5096167;27;45335;-59
2023/01/19 07:00:52;;;;;;;;;19.00;9.25;;;;;4.84;66.30;100361.00;5094650;27;46188;-59
2023/01/19 07:03:21;;;;;;;;;13.50;11.00;;;;;4.85;65.82;100366.38;5100863;27;46186;-60
2023/01/19 07:05:50;;;;;;;;;12.25;11.50;;;;;4.61;65.66;100337.97;5095051;27;45665;-61
2023/01/19 07:08:15;;;;;;;;;17.75;11.50;;;;;4.78;66.30;100365.19;5094977;27;45485;-58
2023/01/19 07:10:41;;;;;;;;;22.25;20.75;;;;;4.78;66.26;100369.56;5093829;27;46666;-59
2023/01/19 07:13:06;;;;;;;;;14.25;12.50;;;;;4.70;66.21;100350.72;5096686;27;45319;-60
2023/01/19 07:15:31;;;;;;;;;16.00;16.00;;;;;4.69;66.36;100348.00;5094362;27;45451;-62
2023/01/19 07:17:58;;;;;;;;;17.50;16.75;;;;;4.82;66.26;100366.22;5085952;27;45423;-58
2023/01/19 07:20:23;;;;;;;;;12.50;8.50;;;;;4.83;66.09;100365.38;5095675;27;46243;-60
2023/01/19 07:22:55;;;;;;;;;16.25;10.25;;;;;4.79;66.51;100360.78;5096844;27;47705;-59
2023/01/19 07:25:20;;;;;;;;;17.50;13.00;;;;;4.86;66.36;100369.91;5097537;27;45444;-59
2023/01/19 07:27:46;;;;;;;;;17.25;14.75;;;;;4.89;65.92;100359.44;5093152;27;45708;-59
2023/01/19 07:30:12;;;;;;;;;12.75;12.50;;;;;4.87;66.13;100366.44;5094383;27;45925;-60
2023/01/19 07:32:37;;;;;;;;;16.25;12.75;;;;;4.84;66.41;100358.34;5092021;27;45475;-59
2023/01/19 07:35:03;;;;;;;;;15.00;9.25;;;;;4.87;66.28;100369.97;5091820;27;45343;-60
2023/01/19 07:37:29;;;;;;;;;12.50;12.50;;;;;4.92;66.40;100373.72;5093835;27;45414;-62
2023/01/19 07:39:54;;;;;;;;;23.25;16.50;;;;;4.95;66.09;100364.97;5092296;27;46318;-60
2023/01/19 07:42:19;;;;;;;;;17.50;15.50;;;;;4.89;66.27;100355.06;5094841;27;45309;-60
2023/01/19 07:44:45;;;;;;;;;22.25;18.50;;;;;5.03;66.18;100374.16;5093728;27;45346;-60
2023/01/19 07:47:11;;;;;;;;;17.25;13.75;;;;;5.02;65.35;100367.06;5092877;27;45402;-62
2023/01/19 07:49:37;;;;;;;;;11.50;11.00;;;;;5.08;66.03;100370.00;5094879;27;45498;-60
2023/01/19 07:52:03;;;;;;;;;11.00;10.25;;;;;5.05;65.46;100366.28;5093891;27;45361;-65
2023/01/19 07:54:28;;;;;;;;;13.50;12.00;;;;;5.11;65.48;100378.03;5075353;27;45454;-59
2023/01/19 07:56:54;;;;;;;;;21.75;15.25;;;;;4.19;65.96;100218.00;5092659;27;46105;-60
2023/01/19 07:59:20;;;;;;;;;16.25;14.25;;;;;5.13;65.86;100380.75;5091765;27;46076;-59
2023/01/19 08:01:45;;;;;;;;;18.25;13.00;;;;;5.14;65.32;100388.75;5091293;27;45605;-59
2023/01/19 08:04:11;;;;;;;;;12.50;9.00;;;;;5.07;65.70;100372.56;5097784;27;45377;-60
2023/01/19 08:06:38;;;;;;;;;17.25;10.50;;;;;5.04;65.27;100362.75;5096850;27;45341;-59
2023/01/19 08:09:04;;;;;;;;;12.25;12.25;;;;;5.16;64.89;100394.13;5099352;27;45465;-59
2023/01/19 08:11:30;;;;;;;;;18.00;14.00;;;;;5.11;65.43;100393.91;5108907;27;45183;-62
2023/01/19 08:13:56;;;;;;;;;16.25;13.50;;;;;5.03;65.19;100387.41;5097678;27;45415;-60
2023/01/19 08:16:21;;;;;;;;;10.75;8.50;;;;;4.80;65.73;100349.34;5079176;27;45521;-60
2023/01/19 08:18:46;;;;;;;;;12.50;9.25;;;;;5.05;65.53;100391.03;5077630;27;46133;-58
2023/01/19 08:21:12;;;;;;;;;19.00;18.25;;;;;5.09;65.38;100400.00;5077420;27;45468;-60
2023/01/19 08:23:37;;;;;;;;;18.00;14.00;;;;;5.09;65.95;100400.00;5076632;27;45436;-63
2023/01/19 08:26:22;;;;;;;;;17.00;14.25;;;;;5.11;65.33;100406.28;5076887;27;45355;-59
2023/01/19 08:28:47;;;;;;;;;14.50;11.50;;;;;5.07;64.94;100397.28;5076704;27;46005;-60
2023/01/19 08:31:13;;;;;;;;;18.75;14.25;;;;;5.04;65.18;100405.09;5068171;28;45253;-60
2023/01/19 08:33:38;;;;;;;;;12.25;12.00;;;;;4.98;65.94;100403.13;5087061;27;45428;-61
2023/01/19 08:36:04;;;;;;;;;20.00;15.00;;;;;4.78;65.98;100358.97;5081075;27;45347;-60
2023/01/19 08:38:29;;;;;;;;;18.00;16.00;;;;;5.05;65.49;100408.66;5082026;27;45450;-61
2023/01/19 08:40:54;;;;;;;;;23.50;16.00;;;;;5.05;65.84;100409.56;5078750;27;54642;-58
2023/01/19 08:43:20;;;;;;;;;17.75;14.25;;;;;5.11;65.00;100400.97;5078447;27;45622;-61
2023/01/19 08:45:50;;;;;;;;;15.25;13.00;;;;;5.13;65.15;100391.34;5079531;27;45332;-61
2023/01/19 08:48:20;;;;;;;;;13.50;13.50;;;;;5.23;64.96;100400.59;5075348;27;45890;-61
2023/01/19 08:50:46;;;;;;;;;12.00;12.00;;;;;5.21;64.44;100408.47;5076200;27;45434;-60
2023/01/19 08:53:12;;;;;;;;;18.25;13.50;;;;;5.13;65.17;100394.00;5085104;27;45449;-64
2023/01/19 08:55:38;;;;;;;;;14.50;13.75;;;;;5.24;64.68;100405.94;5078976;27;45437;-61
2023/01/19 08:58:04;;;;;;;;;18.25;16.75;;;;;5.22;65.26;100399.69;5089876;27;45493;-61
2023/01/19 09:00:32;;;;;;;;;23.50;14.25;;;;;5.30;64.59;100414.16;5076132;27;45326;-60
2023/01/19 09:02:58;;;;;;;;;18.25;15.50;;;;;5.30;64.59;100411.50;5074852;27;45530;-59
2023/01/19 09:05:23;;;;;;;;;20.25;14.75;;;;;5.34;64.86;100412.53;5073645;27;45495;-60
2023/01/19 09:07:50;;;;;;;;;13.75;8.75;;;;;5.38;65.00;100414.50;5069860;27;45605;-60
2023/01/19 09:10:16;;;;;;;;;13.00;13.00;;;;;5.17;63.74;100374.75;5073182;27;45221;-60
2023/01/19 09:12:43;;;;;;;;;21.25;13.25;;;;;5.33;63.89;100403.69;5071837;27;45309;-59
2023/01/19 09:15:12;;;;;;;;;23.50;17.25;;;;;5.40;64.33;100411.91;5075859;28;45411;-58
2023/01/19 09:17:38;;;;;;;;;19.75;17.50;;;;;5.35;64.33;100407.31;5074959;28;47441;-64
2023/01/19 09:20:04;;;;;;;;;18.00;15.25;;;;;5.43;64.31;100414.66;5075053;28;45508;-60
2023/01/19 09:22:31;;;;;;;;;20.00;17.00;;;;;5.40;64.18;100418.09;5075904;28;45550;-61
2023/01/19 09:24:56;;;;;;;;;25.00;18.75;;;;;5.37;64.49;100409.13;5076175;28;45287;-61
2023/01/19 09:27:21;;;;;;;;;19.00;13.75;;;;;5.34;64.37;100405.47;5076691;28;45354;-61
2023/01/19 09:29:51;;;;;;;;;17.50;15.75;;;;;5.37;64.55;100403.84;5054350;28;62560;-64
2023/01/19 09:32:18;;;;;;;;;26.50;19.75;;;;;5.44;63.57;100405.88;5070133;28;45596;-60
2023/01/19 09:34:43;;;;;;;;;23.75;20.25;;;;;5.32;64.44;100393.03;5074457;27;45785;-62
2023/01/19 09:37:09;;;;;;;;;16.75;14.75;;;;;5.42;64.52;100407.56;5069792;28;45734;-60
2023/01/19 09:39:35;;;;;;;;;26.50;19.50;;;;;5.46;64.34;100412.13;5073385;28;49534;-60
2023/01/19 09:42:11;;;;;;;;;20.75;17.50;;;;;5.43;64.78;100409.34;5075347;28;45418;-61
2023/01/19 09:44:36;;;;;;;;;24.75;20.25;;;;;5.52;63.91;100426.53;5072088;28;46277;-60
2023/01/19 09:47:11;;;;;;;;;20.25;19.00;;;;;5.54;63.67;100423.97;5073381;27;46955;-59
2023/01/19 09:49:43;;;;;;;;;25.75;21.50;;;;;5.54;63.53;100430.19;5073011;27;45362;-59
2023/01/19 09:52:14;;;;;;;;;24.25;17.75;;;;;5.42;63.43;100396.97;5076033;28;45584;-60
2023/01/19 09:54:52;;;;;;;;;20.50;16.00;;;;;5.56;62.88;100417.00;5075944;28;45544;-60
2023/01/19 09:57:17;;;;;;;;;27.00;19.75;;;;;5.58;62.82;100419.72;5071352;27;45695;-60
2023/01/19 09:59:46;;;;;;;;;20.50;19.00;;;;;5.49;62.86;100406.97;5073331;28;45435;-60
2023/01/19 10:02:42;;;;;;;;;18.00;16.25;;;;;5.52;63.70;100423.00;5074521;27;45468;-61
2023/01/19 10:05:41;;;;;;;;;22.75;17.50;;;;;5.47;63.53;100440.47;5073246;27;45442;-61
2023/01/19 10:08:24;;;;;;;;;19.25;19.25;;;;;5.49;63.96;100414.91;5083849;27;46302;-63
2023/01/19 10:10:55;;;;;;;;;20.50;17.75;;;;;5.62;63.43;100426.94;5082574;28;45462;-62
2023/01/19 10:13:29;;;;;;;;;28.00;20.00;;;;;5.65;63.19;100429.72;5071883;28;45279;-61
2023/01/19 10:16:15;;;;;;;;;11.50;7.25;;;;;5.56;62.84;100426.69;5075533;28;45478;-63
2023/01/19 10:18:47;;;;;;;;;18.25;18.25;;;;;5.60;63.03;100431.28;5072476;28;45484;-61
2023/01/19 10:21:12;;;;;;;;;24.00;20.75;;;;;5.67;62.62;100422.72;5062317;28;45634;-62
2023/01/19 10:23:43;;;;;;;;;21.75;19.25;;;;;5.68;62.54;100421.91;5074341;28;45372;-61
2023/01/19 10:26:22;;;;;;;;;23.25;21.00;;;;;5.06;63.24;100304.56;5075981;28;45283;-65
2023/01/19 10:28:53;;;;;;;;;23.00;18.00;;;;;5.78;63.26;100418.78;5076184;28;45496;-59
2023/01/19 10:31:22;;;;;;;;;18.00;14.25;;;;;5.86;62.71;100408.47;5070384;28;45483;-61
2023/01/19 10:33:51;;;;;;;;;22.25;18.00;;;;;6.01;62.36;100419.72;5074823;28;45426;-62
2023/01/19 10:36:25;;;;;;;;;24.75;21.25;;;;;6.04;62.18;100411.88;5076072;28;45512;-61
2023/01/19 10:38:50;;;;;;;;;36.75;25.75;;;;;5.98;61.85;100397.47;5050729;28;46682;-59
2023/01/19 10:41:49;;;;;;;;;34.25;22.25;;;;;6.08;61.96;100407.59;5075223;28;45456;-60
2023/01/19 10:44:25;;;;;;;;;27.75;21.75;;;;;6.04;62.07;100408.34;5051765;28;45550;-61
2023/01/19 10:46:53;;;;;;;;;24.00;19.75;;;;;5.27;62.12;100252.47;5074577;28;45331;-60
2023/01/19 10:49:34;;;;;;;;;27.50;23.50;;;;;6.14;61.79;100391.94;5074173;28;45932;-61
2023/01/19 10:52:01;;;;;;;;;25.50;21.50;;;;;6.20;61.60;100388.59;5073140;28;45368;-59
2023/01/19 10:54:28;;;;;;;;;30.50;21.25;;;;;6.22;61.69;100393.13;5068786;28;45638;-60
2023/01/19 10:57:01;;;;;;;;;28.50;22.25;;;;;6.15;61.48;100363.66;5055938;28;45441;-60
2023/01/19 10:59:32;;;;;;;;;30.75;24.25;;;;;6.26;61.46;100383.53;5068413;28;45533;-62
2023/01/19 11:02:16;;;;;;;;;30.50;26.00;;;;;6.29;61.73;100378.34;5074035;28;45418;-62
2023/01/19 11:04:43;;;;;;;;;17.25;7.00;;;;;6.26;61.68;100362.31;5074460;28;45406;-63
2023/01/19 11:07:29;;;;;;;;;24.75;21.25;;;;;6.41;61.17;100376.13;5070674;28;45447;-64
2023/01/19 11:10:16;;;;;;;;;21.50;21.00;;;;;6.36;61.16;100372.41;5074457;28;45514;-63
2023/01/19 11:12:46;;;;;;;;;28.50;25.50;;;;;6.29;61.15;100354.47;5068582;28;45484;-62
2023/01/19 11:15:36;;;;;;;;;24.00;20.25;;;;;6.41;61.14;100372.59;5073812;28;45636;-59
2023/01/19 11:18:05;;;;;;;;;24.25;21.75;;;;;6.44;61.40;100362.97;5036334;28;45617;-61
2023/01/19 11:20:42;;;;;;;;;28.25;24.25;;;;;6.52;61.22;100371.25;5073559;28;46150;-60
2023/01/19 11:23:13;;;;;;;;;27.25;24.50;;;;;6.59;60.81;100373.25;5073665;28;45449;-60
2023/01/19 11:25:43;;;;;;;;;29.50;25.25;;;;;6.57;60.88;100376.72;5074053;28;45343;-61
2023/01/19 11:28:17;;;;;;;;;26.75;20.75;;;;;6.43;61.06;100354.97;5073602;28;45457;-61
2023/01/19 11:30:55;;;;;;;;;26.50;24.00;;;;;6.32;61.10;100343.97;5073567;28;46570;-60
2023/01/19 11:33:31;;;;;;;;;26.75;22.75;;;;;6.48;61.46;100366.66;5072850;28;45430;-61
2023/01/19 11:36:14;;;;;;;;;35.25;28.50;;;;;6.54;61.28;100360.69;5077619;28;45672;-61
2023/01/19 11:38:43;;;;;;;;;36.75;32.25;;;;;6.54;61.06;100355.38;5082166;28;45346;-61